sensor_id;sensor_type;location;lat;lon;timestamp;P1;durP1;ratioP1;P2;durP2;ratioP2
72408;SDS011;60402;48.082;11.628;2024-03-23T00:53:23;4.53;;;1.80;;
72408;SDS011;60402;48.082;11.628;2024-03-23T00:56:09;4.22;;;1.92;;
72408;SDS011;60402;48.082;11.628;2024-03-23T00:58:54;4.65;;;2.15;;
72408;SDS011;60402;48.082;11.628;2024-03-23T01:01:40;5.53;;;1.63;;
72408;SDS011;60402;48.082;11.628;2024-03-23T01:04:26;3.88;;;1.77;;
72408;SDS011;60402;48.082;11.628;2024-03-23T01:07:11;4.20;;;1.80;;
72408;SDS011;60402;48.082;11.628;2024-03-23T01:09:57;4.15;;;1.80;;
72408;SDS011;60402;48.082;11.628;2024-03-23T01:12:43;3.88;;;1.80;;
72408;SDS011;60402;48.082;11.628;2024-03-23T01:15:28;4.72;;;1.98;;
72408;SDS011;60402;48.082;11.628;2024-03-23T01:18:14;4.05;;;2.08;;
72408;SDS011;60402;48.082;11.628;2024-03-23T01:20:59;4.70;;;1.90;;
72408;SDS011;60402;48.082;11.628;2024-03-23T01:23:45;4.63;;;1.70;;
72408;SDS011;60402;48.082;11.628;2024-03-23T01:26:31;3.88;;;1.73;;
72408;SDS011;60402;48.082;11.628;2024-03-23T01:29:17;4.47;;;1.73;;
72408;SDS011;60402;48.082;11.628;2024-03-23T01:32:02;6.30;;;2.00;;
72408;SDS011;60402;48.082;11.628;2024-03-23T01:34:48;4.43;;;1.85;;
72408;SDS011;60402;48.082;11.628;2024-03-23T01:37:34;3.53;;;1.77;;
72408;SDS011;60402;48.082;11.628;2024-03-23T01:40:20;5.93;;;1.70;;
72408;SDS011;60402;48.082;11.628;2024-03-23T01:43:07;4.47;;;1.88;;
72408;SDS011;60402;48.082;11.628;2024-03-23T01:45:53;4.82;;;2.00;;
72408;SDS011;60402;48.082;11.628;2024-03-23T01:48:39;6.15;;;1.90;;
72408;SDS011;60402;48.082;11.628;2024-03-23T01:51:24;3.42;;;1.55;;
72408;SDS011;60402;48.082;11.628;2024-03-23T01:54:11;5.05;;;1.90;;
72408;SDS011;60402;48.082;11.628;2024-03-23T01:56:57;3.35;;;1.63;;
72408;SDS011;60402;48.082;11.628;2024-03-23T01:59:44;4.15;;;1.98;;
72408;SDS011;60402;48.082;11.628;2024-03-23T02:02:29;4.85;;;2.20;;
72408;SDS011;60402;48.082;11.628;2024-03-23T02:05:15;3.83;;;1.70;;
72408;SDS011;60402;48.082;11.628;2024-03-23T02:08:02;4.43;;;1.80;;
72408;SDS011;60402;48.082;11.628;2024-03-23T02:10:50;4.50;;;1.83;;
72408;SDS011;60402;48.082;11.628;2024-03-23T02:16:22;4.43;;;1.60;;
72408;SDS011;60402;48.082;11.628;2024-03-23T02:19:08;3.08;;;1.50;;
72408;SDS011;60402;48.082;11.628;2024-03-23T02:21:54;4.68;;;1.83;;
72408;SDS011;60402;48.082;11.628;2024-03-23T02:24:39;4.85;;;2.00;;
72408;SDS011;60402;48.082;11.628;2024-03-23T02:27:25;3.85;;;1.92;;
72408;SDS011;60402;48.082;11.628;2024-03-23T02:30:10;5.72;;;1.73;;
72408;SDS011;60402;48.082;11.628;2024-03-23T02:32:56;4.43;;;2.13;;
72408;SDS011;60402;48.082;11.628;2024-03-23T02:35:42;4.38;;;1.80;;
72408;SDS011;60402;48.082;11.628;2024-03-23T02:38:29;4.57;;;1.63;;
72408;SDS011;60402;48.082;11.628;2024-03-23T02:41:14;3.92;;;1.90;;
72408;SDS011;60402;48.082;11.628;2024-03-23T02:44:01;3.60;;;1.83;;
72408;SDS011;60402;48.082;11.628;2024-03-23T02:46:46;3.92;;;1.80;;
72408;SDS011;60402;48.082;11.628;2024-03-23T02:49:32;4.55;;;1.88;;
72408;SDS011;60402;48.082;11.628;2024-03-23T02:52:17;5.20;;;1.90;;
72408;SDS011;60402;48.082;11.628;2024-03-23T02:55:03;4.53;;;1.77;;
72408;SDS011;60402;48.082;11.628;2024-03-23T02:57:49;5.38;;;2.00;;
72408;SDS011;60402;48.082;11.628;2024-03-23T03:00:35;4.38;;;1.92;;
72408;SDS011;60402;48.082;11.628;2024-03-23T03:03:21;3.78;;;1.55;;
72408;SDS011;60402;48.082;11.628;2024-03-23T03:06:06;3.63;;;1.70;;
72408;SDS011;60402;48.082;11.628;2024-03-23T03:08:52;3.72;;;1.85;;
72408;SDS011;60402;48.082;11.628;2024-03-23T03:11:38;3.63;;;1.50;;
72408;SDS011;60402;48.082;11.628;2024-03-23T03:14:23;3.40;;;1.63;;
72408;SDS011;60402;48.082;11.628;2024-03-23T03:17:09;3.42;;;1.60;;
72408;SDS011;60402;48.082;11.628;2024-03-23T03:19:54;3.42;;;1.60;;
72408;SDS011;60402;48.082;11.628;2024-03-23T03:22:41;3.85;;;1.75;;
72408;SDS011;60402;48.082;11.628;2024-03-23T03:25:26;3.33;;;1.70;;
72408;SDS011;60402;48.082;11.628;2024-03-23T03:28:12;5.72;;;1.88;;
72408;SDS011;60402;48.082;11.628;2024-03-23T03:30:58;3.60;;;1.67;;
72408;SDS011;60402;48.082;11.628;2024-03-23T03:33:44;3.85;;;1.65;;
72408;SDS011;60402;48.082;11.628;2024-03-23T03:36:30;4.60;;;1.77;;
72408;SDS011;60402;48.082;11.628;2024-03-23T03:39:15;4.13;;;1.70;;
72408;SDS011;60402;48.082;11.628;2024-03-23T03:45:51;5.47;;;1.90;;
72408;SDS011;60402;48.082;11.628;2024-03-23T03:48:40;3.60;;;1.50;;
72408;SDS011;60402;48.082;11.628;2024-03-23T03:51:25;3.42;;;1.60;;
72408;SDS011;60402;48.082;11.628;2024-03-23T03:54:11;3.63;;;1.60;;
72408;SDS011;60402;48.082;11.628;2024-03-23T03:56:57;3.67;;;1.70;;
72408;SDS011;60402;48.082;11.628;2024-03-23T03:59:42;2.33;;;1.27;;
72408;SDS011;60402;48.082;11.628;2024-03-23T04:02:28;4.32;;;1.50;;
72408;SDS011;60402;48.082;11.628;2024-03-23T04:05:14;3.15;;;1.42;;
72408;SDS011;60402;48.082;11.628;2024-03-23T04:07:59;4.63;;;1.45;;
72408;SDS011;60402;48.082;11.628;2024-03-23T04:10:45;3.40;;;1.52;;
72408;SDS011;60402;48.082;11.628;2024-03-23T04:13:31;3.67;;;1.30;;
72408;SDS011;60402;48.082;11.628;2024-03-23T04:16:26;3.58;;;1.48;;
72408;SDS011;60402;48.082;11.628;2024-03-23T04:19:13;3.10;;;1.40;;
72408;SDS011;60402;48.082;11.628;2024-03-23T04:21:59;4.00;;;2.03;;
72408;SDS011;60402;48.082;11.628;2024-03-23T04:24:45;2.92;;;1.52;;
72408;SDS011;60402;48.082;11.628;2024-03-23T04:27:30;3.63;;;1.55;;
72408;SDS011;60402;48.082;11.628;2024-03-23T04:30:16;4.30;;;1.40;;
72408;SDS011;60402;48.082;11.628;2024-03-23T04:33:03;3.20;;;1.40;;
72408;SDS011;60402;48.082;11.628;2024-03-23T04:35:49;3.63;;;1.52;;
72408;SDS011;60402;48.082;11.628;2024-03-23T04:38:35;4.30;;;1.48;;
72408;SDS011;60402;48.082;11.628;2024-03-23T04:41:21;4.60;;;1.55;;
72408;SDS011;60402;48.082;11.628;2024-03-23T04:44:07;3.08;;;1.55;;
72408;SDS011;60402;48.082;11.628;2024-03-23T04:46:52;2.75;;;1.45;;
72408;SDS011;60402;48.082;11.628;2024-03-23T04:49:38;4.53;;;1.42;;
72408;SDS011;60402;48.082;11.628;2024-03-23T04:52:24;3.13;;;1.20;;
72408;SDS011;60402;48.082;11.628;2024-03-23T04:55:09;3.38;;;1.50;;
72408;SDS011;60402;48.082;11.628;2024-03-23T04:57:55;4.05;;;1.60;;
72408;SDS011;60402;48.082;11.628;2024-03-23T05:00:40;3.08;;;1.33;;
72408;SDS011;60402;48.082;11.628;2024-03-23T05:03:26;4.28;;;1.52;;
72408;SDS011;60402;48.082;11.628;2024-03-23T05:06:12;3.35;;;1.10;;
72408;SDS011;60402;48.082;11.628;2024-03-23T05:08:57;2.60;;;1.20;;
72408;SDS011;60402;48.082;11.628;2024-03-23T05:11:43;2.38;;;1.20;;
72408;SDS011;60402;48.082;11.628;2024-03-23T05:14:29;2.55;;;1.30;;
72408;SDS011;60402;48.082;11.628;2024-03-23T05:17:14;3.67;;;1.20;;
72408;SDS011;60402;48.082;11.628;2024-03-23T05:20:00;2.80;;;1.42;;
72408;SDS011;60402;48.082;11.628;2024-03-23T05:22:45;3.35;;;1.30;;
72408;SDS011;60402;48.082;11.628;2024-03-23T05:25:31;3.25;;;1.20;;
72408;SDS011;60402;48.082;11.628;2024-03-23T05:28:17;2.88;;;1.20;;
72408;SDS011;60402;48.082;11.628;2024-03-23T05:31:03;2.90;;;1.20;;
72408;SDS011;60402;48.082;11.628;2024-03-23T05:33:49;3.58;;;1.10;;
72408;SDS011;60402;48.082;11.628;2024-03-23T05:36:35;3.78;;;1.13;;
72408;SDS011;60402;48.082;11.628;2024-03-23T05:39:21;3.42;;;1.08;;
72408;SDS011;60402;48.082;11.628;2024-03-23T05:42:07;2.42;;;1.25;;
72408;SDS011;60402;48.082;11.628;2024-03-23T05:44:53;4.93;;;1.23;;
72408;SDS011;60402;48.082;11.628;2024-03-23T05:47:39;2.50;;;1.15;;
72408;SDS011;60402;48.082;11.628;2024-03-23T05:50:25;2.72;;;1.20;;
72408;SDS011;60402;48.082;11.628;2024-03-23T05:53:10;3.45;;;1.10;;
72408;SDS011;60402;48.082;11.628;2024-03-23T05:56:02;2.72;;;1.05;;
72408;SDS011;60402;48.082;11.628;2024-03-23T05:58:54;3.22;;;1.17;;
72408;SDS011;60402;48.082;11.628;2024-03-23T06:01:40;5.25;;;1.40;;
72408;SDS011;60402;48.082;11.628;2024-03-23T06:04:26;2.65;;;1.10;;
72408;SDS011;60402;48.082;11.628;2024-03-23T06:07:12;2.60;;;1.17;;
72408;SDS011;60402;48.082;11.628;2024-03-23T06:09:59;1.83;;;1.00;;
72408;SDS011;60402;48.082;11.628;2024-03-23T06:12:47;3.75;;;1.10;;
72408;SDS011;60402;48.082;11.628;2024-03-23T06:15:34;3.85;;;1.00;;
72408;SDS011;60402;48.082;11.628;2024-03-23T06:18:23;2.97;;;0.98;;
72408;SDS011;60402;48.082;11.628;2024-03-23T06:21:12;2.25;;;0.90;;
72408;SDS011;60402;48.082;11.628;2024-03-23T06:23:59;2.25;;;1.05;;
72408;SDS011;60402;48.082;11.628;2024-03-23T06:26:45;2.13;;;0.85;;
72408;SDS011;60402;48.082;11.628;2024-03-23T06:29:30;3.00;;;0.98;;
72408;SDS011;60402;48.082;11.628;2024-03-23T06:32:16;2.25;;;1.00;;
72408;SDS011;60402;48.082;11.628;2024-03-23T06:35:02;2.35;;;1.10;;
72408;SDS011;60402;48.082;11.628;2024-03-23T06:37:53;3.40;;;1.10;;
72408;SDS011;60402;48.082;11.628;2024-03-23T06:40:39;2.38;;;1.00;;
72408;SDS011;60402;48.082;11.628;2024-03-23T06:43:25;3.60;;;1.00;;
72408;SDS011;60402;48.082;11.628;2024-03-23T06:46:10;2.53;;;0.90;;
72408;SDS011;60402;48.082;11.628;2024-03-23T06:48:56;2.25;;;0.90;;
72408;SDS011;60402;48.082;11.628;2024-03-23T06:51:41;1.67;;;0.90;;
72408;SDS011;60402;48.082;11.628;2024-03-23T06:54:27;1.63;;;0.93;;
72408;SDS011;60402;48.082;11.628;2024-03-23T06:57:13;2.67;;;0.70;;
72408;SDS011;60402;48.082;11.628;2024-03-23T06:59:58;2.65;;;0.88;;
72408;SDS011;60402;48.082;11.628;2024-03-23T07:02:44;3.35;;;0.82;;
72408;SDS011;60402;48.082;11.628;2024-03-23T07:05:30;1.60;;;0.85;;
72408;SDS011;60402;48.082;11.628;2024-03-23T07:08:15;3.42;;;1.00;;
72408;SDS011;60402;48.082;11.628;2024-03-23T07:11:06;2.35;;;0.73;;
72408;SDS011;60402;48.082;11.628;2024-03-23T07:13:52;2.25;;;0.85;;
72408;SDS011;60402;48.082;11.628;2024-03-23T07:16:42;2.40;;;0.90;;
72408;SDS011;60402;48.082;11.628;2024-03-23T07:19:27;2.80;;;0.90;;
72408;SDS011;60402;48.082;11.628;2024-03-23T07:22:13;2.78;;;1.13;;
72408;SDS011;60402;48.082;11.628;2024-03-23T07:25:00;1.17;;;0.70;;
72408;SDS011;60402;48.082;11.628;2024-03-23T07:27:46;2.85;;;1.10;;
72408;SDS011;60402;48.082;11.628;2024-03-23T07:30:32;2.47;;;1.10;;
72408;SDS011;60402;48.082;11.628;2024-03-23T07:33:17;2.00;;;0.98;;
72408;SDS011;60402;48.082;11.628;2024-03-23T07:36:03;2.25;;;0.88;;
72408;SDS011;60402;48.082;11.628;2024-03-23T07:38:50;3.28;;;1.00;;
72408;SDS011;60402;48.082;11.628;2024-03-23T07:41:36;2.35;;;1.67;;
72408;SDS011;60402;48.082;11.628;2024-03-23T07:44:22;5.10;;;1.20;;
72408;SDS011;60402;48.082;11.628;2024-03-23T07:47:07;2.58;;;1.10;;
72408;SDS011;60402;48.082;11.628;2024-03-23T07:49:53;2.70;;;1.30;;
72408;SDS011;60402;48.082;11.628;2024-03-23T07:52:39;4.38;;;1.83;;
72408;SDS011;60402;48.082;11.628;2024-03-23T07:55:24;4.13;;;1.42;;
72408;SDS011;60402;48.082;11.628;2024-03-23T07:58:10;3.30;;;1.25;;
72408;SDS011;60402;48.082;11.628;2024-03-23T08:00:56;3.13;;;1.52;;
72408;SDS011;60402;48.082;11.628;2024-03-23T08:03:49;5.88;;;2.33;;
72408;SDS011;60402;48.082;11.628;2024-03-23T08:06:35;3.10;;;1.15;;
72408;SDS011;60402;48.082;11.628;2024-03-23T08:09:20;2.80;;;1.13;;
72408;SDS011;60402;48.082;11.628;2024-03-23T08:12:06;2.17;;;1.10;;
72408;SDS011;60402;48.082;11.628;2024-03-23T08:14:52;2.22;;;1.00;;
72408;SDS011;60402;48.082;11.628;2024-03-23T08:17:38;2.58;;;1.02;;
72408;SDS011;60402;48.082;11.628;2024-03-23T08:20:23;5.53;;;1.50;;
72408;SDS011;60402;48.082;11.628;2024-03-23T08:23:09;2.75;;;0.93;;
72408;SDS011;60402;48.082;11.628;2024-03-23T08:25:58;4.13;;;1.40;;
72408;SDS011;60402;48.082;11.628;2024-03-23T08:28:45;2.72;;;1.10;;
72408;SDS011;60402;48.082;11.628;2024-03-23T08:31:31;3.50;;;1.23;;
72408;SDS011;60402;48.082;11.628;2024-03-23T08:34:16;4.15;;;1.27;;
72408;SDS011;60402;48.082;11.628;2024-03-23T08:37:02;4.20;;;1.33;;
72408;SDS011;60402;48.082;11.628;2024-03-23T08:39:47;2.08;;;1.05;;
72408;SDS011;60402;48.082;11.628;2024-03-23T08:45:22;3.83;;;0.98;;
72408;SDS011;60402;48.082;11.628;2024-03-23T08:48:07;3.72;;;1.13;;
72408;SDS011;60402;48.082;11.628;2024-03-23T08:51:01;2.92;;;1.17;;
72408;SDS011;60402;48.082;11.628;2024-03-23T08:53:50;3.70;;;1.40;;
72408;SDS011;60402;48.082;11.628;2024-03-23T08:56:36;3.45;;;1.40;;
72408;SDS011;60402;48.082;11.628;2024-03-23T08:59:21;3.50;;;1.40;;
72408;SDS011;60402;48.082;11.628;2024-03-23T09:02:09;4.20;;;1.52;;
72408;SDS011;60402;48.082;11.628;2024-03-23T09:04:54;4.38;;;1.48;;
72408;SDS011;60402;48.082;11.628;2024-03-23T09:07:40;4.15;;;1.63;;
72408;SDS011;60402;48.082;11.628;2024-03-23T09:10:25;3.33;;;1.33;;
72408;SDS011;60402;48.082;11.628;2024-03-23T09:13:11;3.42;;;1.40;;
72408;SDS011;60402;48.082;11.628;2024-03-23T09:15:57;4.15;;;1.77;;
72408;SDS011;60402;48.082;11.628;2024-03-23T09:18:42;4.57;;;1.55;;
72408;SDS011;60402;48.082;11.628;2024-03-23T09:21:28;3.20;;;1.45;;
72408;SDS011;60402;48.082;11.628;2024-03-23T09:24:14;4.15;;;1.60;;
72408;SDS011;60402;48.082;11.628;2024-03-23T09:26:59;4.90;;;1.95;;
72408;SDS011;60402;48.082;11.628;2024-03-23T09:29:45;5.50;;;1.50;;
72408;SDS011;60402;48.082;11.628;2024-03-23T09:32:30;4.70;;;1.70;;
72408;SDS011;60402;48.082;11.628;2024-03-23T09:35:16;3.70;;;1.60;;
72408;SDS011;60402;48.082;11.628;2024-03-23T09:38:02;4.30;;;1.40;;
72408;SDS011;60402;48.082;11.628;2024-03-23T09:40:48;4.68;;;1.60;;
72408;SDS011;60402;48.082;11.628;2024-03-23T09:43:38;3.65;;;1.30;;
72408;SDS011;60402;48.082;11.628;2024-03-23T09:46:24;2.35;;;1.08;;
72408;SDS011;60402;48.082;11.628;2024-03-23T09:49:09;3.13;;;1.10;;
72408;SDS011;60402;48.082;11.628;2024-03-23T09:51:55;2.92;;;1.15;;
72408;SDS011;60402;48.082;11.628;2024-03-23T09:54:41;3.10;;;1.10;;
72408;SDS011;60402;48.082;11.628;2024-03-23T09:57:27;2.75;;;1.00;;
72408;SDS011;60402;48.082;11.628;2024-03-23T10:00:13;2.00;;;0.88;;
72408;SDS011;60402;48.082;11.628;2024-03-23T10:02:59;1.33;;;0.63;;
72408;SDS011;60402;48.082;11.628;2024-03-23T10:05:47;1.83;;;0.88;;
72408;SDS011;60402;48.082;11.628;2024-03-23T10:08:45;2.80;;;0.70;;
72408;SDS011;60402;48.082;11.628;2024-03-23T10:11:30;1.05;;;0.55;;
72408;SDS011;60402;48.082;11.628;2024-03-23T10:14:28;2.50;;;0.50;;
72408;SDS011;60402;48.082;11.628;2024-03-23T10:17:19;2.80;;;0.82;;
72408;SDS011;60402;48.082;11.628;2024-03-23T10:20:09;1.20;;;0.40;;
72408;SDS011;60402;48.082;11.628;2024-03-23T10:22:56;1.33;;;0.30;;
72408;SDS011;60402;48.082;11.628;2024-03-23T10:25:41;1.35;;;0.40;;
72408;SDS011;60402;48.082;11.628;2024-03-23T10:28:27;1.55;;;0.60;;
72408;SDS011;60402;48.082;11.628;2024-03-23T10:31:13;0.82;;;0.40;;
72408;SDS011;60402;48.082;11.628;2024-03-23T10:33:59;1.65;;;0.60;;
72408;SDS011;60402;48.082;11.628;2024-03-23T10:36:48;0.77;;;0.32;;
72408;SDS011;60402;48.082;11.628;2024-03-23T10:42:21;1.98;;;0.57;;
72408;SDS011;60402;48.082;11.628;2024-03-23T10:45:08;1.95;;;0.40;;
72408;SDS011;60402;48.082;11.628;2024-03-23T10:47:54;1.88;;;0.65;;
72408;SDS011;60402;48.082;11.628;2024-03-23T10:50:40;1.42;;;0.50;;
72408;SDS011;60402;48.082;11.628;2024-03-23T10:53:26;1.83;;;0.47;;
72408;SDS011;60402;48.082;11.628;2024-03-23T10:56:13;0.22;;;0.20;;
72408;SDS011;60402;48.082;11.628;2024-03-23T10:59:01;1.35;;;0.45;;
72408;SDS011;60402;48.082;11.628;2024-03-23T11:01:55;1.42;;;0.40;;
72408;SDS011;60402;48.082;11.628;2024-03-23T11:04:42;1.02;;;0.50;;
72408;SDS011;60402;48.082;11.628;2024-03-23T11:07:29;3.13;;;0.50;;
72408;SDS011;60402;48.082;11.628;2024-03-23T11:10:26;1.60;;;0.32;;
72408;SDS011;60402;48.082;11.628;2024-03-23T11:13:21;0.73;;;0.38;;
72408;SDS011;60402;48.082;11.628;2024-03-23T11:16:17;3.20;;;0.43;;
72408;SDS011;60402;48.082;11.628;2024-03-23T11:25:26;2.58;;;0.50;;
72408;SDS011;60402;48.082;11.628;2024-03-23T11:28:13;1.98;;;0.40;;
72408;SDS011;60402;48.082;11.628;2024-03-23T11:31:00;1.27;;;0.38;;
72408;SDS011;60402;48.082;11.628;2024-03-23T11:33:45;1.73;;;0.60;;
72408;SDS011;60402;48.082;11.628;2024-03-23T11:36:32;3.70;;;0.50;;
72408;SDS011;60402;48.082;11.628;2024-03-23T11:39:18;1.58;;;0.43;;
72408;SDS011;60402;48.082;11.628;2024-03-23T11:42:05;2.05;;;0.55;;
72408;SDS011;60402;48.082;11.628;2024-03-23T11:44:51;1.15;;;0.57;;
72408;SDS011;60402;48.082;11.628;2024-03-23T11:47:37;2.40;;;0.50;;
72408;SDS011;60402;48.082;11.628;2024-03-23T11:50:28;2.08;;;0.70;;
72408;SDS011;60402;48.082;11.628;2024-03-23T11:53:18;0.50;;;0.30;;
72408;SDS011;60402;48.082;11.628;2024-03-23T11:56:03;0.80;;;0.47;;
72408;SDS011;60402;48.082;11.628;2024-03-23T11:58:49;1.27;;;0.40;;
72408;SDS011;60402;48.082;11.628;2024-03-23T12:01:37;1.40;;;0.43;;
72408;SDS011;60402;48.082;11.628;2024-03-23T12:04:26;2.28;;;0.70;;
72408;SDS011;60402;48.082;11.628;2024-03-23T12:10:06;3.05;;;0.75;;
72408;SDS011;60402;48.082;11.628;2024-03-23T12:13:01;2.40;;;0.80;;
72408;SDS011;60402;48.082;11.628;2024-03-23T12:15:50;2.75;;;0.90;;
72408;SDS011;60402;48.082;11.628;2024-03-23T12:18:36;4.65;;;0.82;;
72408;SDS011;60402;48.082;11.628;2024-03-23T12:21:23;3.22;;;0.98;;
72408;SDS011;60402;48.082;11.628;2024-03-23T12:24:08;2.53;;;0.70;;
72408;SDS011;60402;48.082;11.628;2024-03-23T12:26:59;3.22;;;0.80;;
72408;SDS011;60402;48.082;11.628;2024-03-23T12:29:45;2.75;;;1.15;;
72408;SDS011;60402;48.082;11.628;2024-03-23T12:32:32;2.03;;;1.00;;
72408;SDS011;60402;48.082;11.628;2024-03-23T12:35:17;3.88;;;1.00;;
72408;SDS011;60402;48.082;11.628;2024-03-23T12:38:03;3.17;;;1.08;;
72408;SDS011;60402;48.082;11.628;2024-03-23T12:40:50;3.15;;;1.02;;
72408;SDS011;60402;48.082;11.628;2024-03-23T12:43:35;2.80;;;1.00;;
72408;SDS011;60402;48.082;11.628;2024-03-23T12:46:23;2.55;;;0.90;;
72408;SDS011;60402;48.082;11.628;2024-03-23T12:49:08;2.92;;;1.20;;
72408;SDS011;60402;48.082;11.628;2024-03-23T12:51:54;3.03;;;1.00;;
72408;SDS011;60402;48.082;11.628;2024-03-23T12:54:41;3.20;;;0.93;;
72408;SDS011;60402;48.082;11.628;2024-03-23T12:57:27;4.00;;;1.20;;
72408;SDS011;60402;48.082;11.628;2024-03-23T13:00:13;4.10;;;1.50;;
72408;SDS011;60402;48.082;11.628;2024-03-23T13:03:01;8.55;;;2.33;;
72408;SDS011;60402;48.082;11.628;2024-03-23T13:05:51;4.93;;;1.80;;
72408;SDS011;60402;48.082;11.628;2024-03-23T13:08:46;6.57;;;2.20;;
72408;SDS011;60402;48.082;11.628;2024-03-23T13:11:32;9.80;;;2.90;;
72408;SDS011;60402;48.082;11.628;2024-03-23T13:14:18;4.63;;;1.48;;
72408;SDS011;60402;48.082;11.628;2024-03-23T13:17:04;3.13;;;1.15;;
72408;SDS011;60402;48.082;11.628;2024-03-23T13:19:50;4.90;;;1.92;;
72408;SDS011;60402;48.082;11.628;2024-03-23T13:22:36;3.47;;;1.10;;
72408;SDS011;60402;48.082;11.628;2024-03-23T13:25:21;3.47;;;1.50;;
72408;SDS011;60402;48.082;11.628;2024-03-23T13:28:07;3.38;;;1.17;;
72408;SDS011;60402;48.082;11.628;2024-03-23T13:30:55;3.92;;;1.52;;
72408;SDS011;60402;48.082;11.628;2024-03-23T13:33:43;3.08;;;1.00;;
72408;SDS011;60402;48.082;11.628;2024-03-23T13:36:29;4.68;;;0.95;;
72408;SDS011;60402;48.082;11.628;2024-03-23T13:39:15;3.45;;;1.10;;
72408;SDS011;60402;48.082;11.628;2024-03-23T13:42:01;2.35;;;1.00;;
72408;SDS011;60402;48.082;11.628;2024-03-23T13:44:46;1.52;;;0.90;;
72408;SDS011;60402;48.082;11.628;2024-03-23T13:47:32;4.35;;;1.08;;
72408;SDS011;60402;48.082;11.628;2024-03-23T13:50:17;3.67;;;1.10;;
72408;SDS011;60402;48.082;11.628;2024-03-23T13:53:03;2.85;;;1.00;;
72408;SDS011;60402;48.082;11.628;2024-03-23T13:55:49;4.80;;;1.23;;
72408;SDS011;60402;48.082;11.628;2024-03-23T13:58:35;2.95;;;1.20;;
72408;SDS011;60402;48.082;11.628;2024-03-23T14:01:21;5.60;;;1.38;;
72408;SDS011;60402;48.082;11.628;2024-03-23T14:04:07;5.32;;;1.10;;
72408;SDS011;60402;48.082;11.628;2024-03-23T14:06:53;2.60;;;1.00;;
72408;SDS011;60402;48.082;11.628;2024-03-23T14:09:38;3.05;;;0.90;;
72408;SDS011;60402;48.082;11.628;2024-03-23T14:12:24;3.58;;;1.13;;
72408;SDS011;60402;48.082;11.628;2024-03-23T14:15:11;5.28;;;1.77;;
72408;SDS011;60402;48.082;11.628;2024-03-23T14:17:57;3.42;;;1.17;;
72408;SDS011;60402;48.082;11.628;2024-03-23T14:20:42;2.78;;;0.90;;
72408;SDS011;60402;48.082;11.628;2024-03-23T14:23:28;3.08;;;1.10;;
72408;SDS011;60402;48.082;11.628;2024-03-23T14:26:15;3.72;;;1.38;;
72408;SDS011;60402;48.082;11.628;2024-03-23T14:29:01;4.03;;;1.70;;
72408;SDS011;60402;48.082;11.628;2024-03-23T14:31:48;4.50;;;1.40;;
72408;SDS011;60402;48.082;11.628;2024-03-23T14:34:34;4.60;;;1.48;;
72408;SDS011;60402;48.082;11.628;2024-03-23T14:37:20;3.92;;;1.67;;
72408;SDS011;60402;48.082;11.628;2024-03-23T14:40:06;5.47;;;1.70;;
72408;SDS011;60402;48.082;11.628;2024-03-23T14:42:52;3.95;;;1.67;;
72408;SDS011;60402;48.082;11.628;2024-03-23T14:45:45;5.55;;;1.52;;
72408;SDS011;60402;48.082;11.628;2024-03-23T14:48:51;7.75;;;1.52;;
72408;SDS011;60402;48.082;11.628;2024-03-23T14:51:36;3.88;;;1.33;;
72408;SDS011;60402;48.082;11.628;2024-03-23T14:54:22;2.97;;;1.10;;
72408;SDS011;60402;48.082;11.628;2024-03-23T14:57:08;2.97;;;1.00;;
72408;SDS011;60402;48.082;11.628;2024-03-23T14:59:56;4.38;;;1.40;;
72408;SDS011;60402;48.082;11.628;2024-03-23T15:02:42;5.47;;;1.20;;
72408;SDS011;60402;48.082;11.628;2024-03-23T15:05:27;6.53;;;1.35;;
72408;SDS011;60402;48.082;11.628;2024-03-23T15:08:13;3.92;;;0.90;;
72408;SDS011;60402;48.082;11.628;2024-03-23T15:11:00;2.28;;;0.90;;
72408;SDS011;60402;48.082;11.628;2024-03-23T15:13:50;4.32;;;1.23;;
72408;SDS011;60402;48.082;11.628;2024-03-23T15:16:36;4.15;;;1.13;;
72408;SDS011;60402;48.082;11.628;2024-03-23T15:19:22;3.53;;;1.13;;
72408;SDS011;60402;48.082;11.628;2024-03-23T15:22:08;5.90;;;1.25;;
72408;SDS011;60402;48.082;11.628;2024-03-23T15:24:54;5.35;;;1.60;;
72408;SDS011;60402;48.082;11.628;2024-03-23T15:27:40;3.50;;;1.00;;
72408;SDS011;60402;48.082;11.628;2024-03-23T15:30:28;4.68;;;1.10;;
72408;SDS011;60402;48.082;11.628;2024-03-23T15:33:15;4.53;;;1.27;;
72408;SDS011;60402;48.082;11.628;2024-03-23T15:36:01;5.13;;;1.13;;
72408;SDS011;60402;48.082;11.628;2024-03-23T15:38:47;4.60;;;1.20;;
72408;SDS011;60402;48.082;11.628;2024-03-23T15:41:34;3.30;;;1.10;;
72408;SDS011;60402;48.082;11.628;2024-03-23T15:44:21;6.18;;;1.60;;
72408;SDS011;60402;48.082;11.628;2024-03-23T15:47:06;3.88;;;1.27;;
72408;SDS011;60402;48.082;11.628;2024-03-23T15:49:52;5.05;;;1.13;;
72408;SDS011;60402;48.082;11.628;2024-03-23T15:52:40;5.78;;;1.20;;
72408;SDS011;60402;48.082;11.628;2024-03-23T15:55:26;6.32;;;1.33;;
72408;SDS011;60402;48.082;11.628;2024-03-23T15:58:11;4.18;;;1.23;;
72408;SDS011;60402;48.082;11.628;2024-03-23T16:00:58;2.90;;;1.33;;
72408;SDS011;60402;48.082;11.628;2024-03-23T16:03:45;5.43;;;1.42;;
72408;SDS011;60402;48.082;11.628;2024-03-23T16:06:31;5.15;;;1.48;;
72408;SDS011;60402;48.082;11.628;2024-03-23T16:09:16;3.13;;;1.05;;
72408;SDS011;60402;48.082;11.628;2024-03-23T16:12:04;3.25;;;1.02;;
72408;SDS011;60402;48.082;11.628;2024-03-23T16:14:49;4.47;;;1.13;;
72408;SDS011;60402;48.082;11.628;2024-03-23T16:17:35;4.43;;;1.10;;
72408;SDS011;60402;48.082;11.628;2024-03-23T16:20:21;3.65;;;1.20;;
72408;SDS011;60402;48.082;11.628;2024-03-23T16:23:07;3.00;;;1.10;;
72408;SDS011;60402;48.082;11.628;2024-03-23T16:25:53;4.57;;;1.33;;
72408;SDS011;60402;48.082;11.628;2024-03-23T16:28:43;4.63;;;1.13;;
72408;SDS011;60402;48.082;11.628;2024-03-23T16:31:29;3.60;;;1.30;;
72408;SDS011;60402;48.082;11.628;2024-03-23T16:34:14;3.75;;;1.23;;
72408;SDS011;60402;48.082;11.628;2024-03-23T16:37:00;5.38;;;1.27;;
72408;SDS011;60402;48.082;11.628;2024-03-23T16:39:46;5.18;;;1.20;;
72408;SDS011;60402;48.082;11.628;2024-03-23T16:42:32;5.45;;;1.23;;
72408;SDS011;60402;48.082;11.628;2024-03-23T16:45:18;5.82;;;1.30;;
72408;SDS011;60402;48.082;11.628;2024-03-23T16:48:04;4.18;;;1.20;;
72408;SDS011;60402;48.082;11.628;2024-03-23T16:50:49;3.75;;;1.17;;
72408;SDS011;60402;48.082;11.628;2024-03-23T16:53:36;2.97;;;1.20;;
72408;SDS011;60402;48.082;11.628;2024-03-23T16:56:24;4.18;;;1.17;;
72408;SDS011;60402;48.082;11.628;2024-03-23T16:59:10;4.05;;;1.50;;
72408;SDS011;60402;48.082;11.628;2024-03-23T17:01:56;4.13;;;1.25;;
72408;SDS011;60402;48.082;11.628;2024-03-23T17:04:42;3.60;;;1.15;;
72408;SDS011;60402;48.082;11.628;2024-03-23T17:07:27;5.10;;;1.30;;
72408;SDS011;60402;48.082;11.628;2024-03-23T17:10:13;3.53;;;1.27;;
72408;SDS011;60402;48.082;11.628;2024-03-23T17:12:59;5.60;;;1.55;;
72408;SDS011;60402;48.082;11.628;2024-03-23T17:15:45;4.38;;;1.60;;
72408;SDS011;60402;48.082;11.628;2024-03-23T17:18:31;4.00;;;1.58;;
72408;SDS011;60402;48.082;11.628;2024-03-23T17:21:18;6.25;;;1.55;;
72408;SDS011;60402;48.082;11.628;2024-03-23T17:24:03;7.05;;;1.60;;
72408;SDS011;60402;48.082;11.628;2024-03-23T17:26:50;5.00;;;1.50;;
72408;SDS011;60402;48.082;11.628;2024-03-23T17:29:35;3.75;;;1.40;;
72408;SDS011;60402;48.082;11.628;2024-03-23T17:32:21;5.88;;;1.30;;
72408;SDS011;60402;48.082;11.628;2024-03-23T17:35:06;3.72;;;1.20;;
72408;SDS011;60402;48.082;11.628;2024-03-23T17:37:52;5.57;;;1.30;;
72408;SDS011;60402;48.082;11.628;2024-03-23T17:40:38;1.40;;;0.63;;